עמוד ראשי
METAR-TAF:

METAR-TAF

שדות תעופה :

נמל התעופה הבינלאומי המלך חוסיין

עקבה, ירדן

קו רוחב: 29-38N, קו אורך: 035-01E, גובה: 53מטר

תצפית מזג אוויר נוכחית

הדו"ח נערך לפני 43דקות, בשעה 22:00 UTC
רוח 7קשר מכיוון צפון
טמפרטורת 35 צלסיוס
לחות 25%
לחץ 1007 hPa
ראות 10 קילומטר או יותר
ללא עננים שבסיסם נמוך מ 5000 רגל או קומולונימבוס

METAR: OJAQ 152200Z 36007KT CAVOK 35/12 Q1007 NOSIG

זמן: 01:43 (22:43 UTC)

תחזית

הדו"ח נערך לפני 5 שעות ו 43דקות, בשעה 17:00 UTC
תחזית בתוקף מ 15 ב 18 UTC עד 16 ב 24 UTC
רוח 12קשר מכיוון צפון
ראות: 5000מטר
אובך
הסתברות 40% :
זמנית מ -
16 ב 12 UTC עד 16 ב 18 UTC
רוח 18קשר מכיוון צפון
ראות: 4000מטר
אבק נושב,

TAF: OJAQ 151700Z 1518/1624 35012KT 5000 HZ NSC PROB40 TEMPO 1612/1618 01018KT 4000 BLDU

תצפיות ותחזיות מזג אוויר לגבי יותר מ- 4,000 שדות תעופה ברחבי העולם. דוחות METAR ו- TAF.

התחנות הזמינות מסומנות בנקודות צהובות ואדומות על גבי המפה.

העבר את העכבר לנקודה הצבעונית על מנת לראות את שם התחנה.

לאחר מכן, לחץ כדי לראות את תוכן ואת תחזיות מזג האוויר.

כדי לשנות את המפה: לחץ על הכפתורים הירוקים עם הפלוס השחור כדי להתקרב; על הכפתור הירוק עם המקף כדי להתרחק; או בחיצים הירוקים למפות סמוכות.


METAR-TAF: